Time;durP1;ratioP1;P1;durP2;ratioP2;P2;SDS_P1;SDS_P2;PMS_P1;PMS_P2;Temp;Humidity;BMP_temperature;BMP_pressure;BME280_temperature;BME280_humidity;BME280_pressure;Samples;Min_cycle;Max_cycle;Signal;HPM_P1;HPM_P2
2022/07/02 00:02:23;;;;;;;;;;;;;;;-140.72;100.00;52541.03;5034835;28;19936;-68
2022/07/02 00:04:55;;;;;;;;;;;;;;;-140.72;100.00;52551.16;5034231;28;19921;-69
2022/07/02 00:07:22;;;;;;;;;;;;;;;-140.72;100.00;52549.13;5032271;28;20207;-68
2022/07/02 00:09:47;;;;;;;;;;;;;;;-140.72;100.00;52549.13;5022995;28;19967;-69
2022/07/02 00:12:13;;;;;;;;;;;;;;;-140.72;100.00;52532.91;5026928;28;19924;-69
2022/07/02 00:14:38;;;;;;;;;;;;;;;-140.72;100.00;52563.34;5031987;28;19921;-70
2022/07/02 00:17:04;;;;;;;;;;;;;;;-140.72;100.00;52541.03;5021991;28;19937;-69
2022/07/02 00:19:29;;;;;;;;;;;;;;;-140.72;100.00;52553.19;5028523;28;19937;-69
2022/07/02 00:21:57;;;;;;;;;;;;;;;-140.72;100.00;52549.13;5026814;28;19976;-69
2022/07/02 00:24:22;;;;;;;;;;;;;;;-140.72;100.00;52569.44;5031512;28;19918;-69
2022/07/02 00:26:54;;;;;;;;;;;;;;;-140.72;100.00;52569.44;5027998;28;19918;-68
2022/07/02 00:29:29;;;;;;;;;;;;;;;-140.72;100.00;52581.59;5031867;28;19916;-68
2022/07/02 00:31:55;;;;;;;;;;;;;;;-140.72;100.00;52545.06;5033427;28;19936;-71
2022/07/02 00:34:22;;;;;;;;;;;;;;;-140.72;100.00;52520.72;5032290;28;20414;-69
2022/07/02 00:36:49;;;;;;;;;;;;;;;-140.72;100.00;52534.94;5019273;28;19925;-69
2022/07/02 00:39:14;;;;;;;;;;;;;;;-140.72;100.00;52524.78;5031799;28;19917;-69
2022/07/02 00:41:40;;;;;;;;;;;;;;;-140.72;100.00;52532.91;5018742;28;19929;-68
2022/07/02 00:44:05;;;;;;;;;;;;;;;-140.72;100.00;52565.38;5026117;28;20012;-68
2022/07/02 00:46:31;;;;;;;;;;;;;;;-140.72;100.00;52563.34;5026329;28;19960;-67
2022/07/02 00:48:58;;;;;;;;;;;;;;;-140.72;100.00;52547.09;5025370;28;19981;-68
2022/07/02 00:51:23;;;;;;;;;;;;;;;-140.72;100.00;52561.31;5031564;28;19955;-68
2022/07/02 00:53:49;;;;;;;;;;;;;;;-140.72;100.00;52543.03;5018024;28;19917;-68
2022/07/02 00:56:14;;;;;;;;;;;;;;;-140.72;100.00;52561.31;5030951;28;19937;-69
2022/07/02 00:58:39;;;;;;;;;;;;;;;-140.72;100.00;52557.25;5019533;28;19905;-70
2022/07/02 01:01:04;;;;;;;;;;;;;;;-140.72;100.00;52549.13;5026488;28;20041;-70
2022/07/02 01:03:30;;;;;;;;;;;;;;;-140.72;100.00;52541.03;5025788;28;20272;-69
2022/07/02 01:05:56;;;;;;;;;;;;;;;-140.72;100.00;52569.44;5019435;28;19920;-67
2022/07/02 01:11:07;;;;;;;;;;;;;;;-140.72;100.00;52583.63;5022530;28;19929;-68
2022/07/02 01:13:32;;;;;;;;;;;;;;;-140.72;100.00;52545.06;5028845;28;19928;-68
2022/07/02 01:15:58;;;;;;;;;;;;;;;-140.72;100.00;52591.75;5023328;28;19917;-69
2022/07/02 01:18:23;;;;;;;;;;;;;;;-140.72;100.00;52514.63;5032201;28;19945;-69
2022/07/02 01:20:50;;;;;;;;;;;;;;;-140.72;100.00;52581.59;5028486;28;20085;-68
2022/07/02 01:23:15;;;;;;;;;;;;;;;-140.72;100.00;52595.81;5021157;28;19996;-68
2022/07/02 01:25:40;;;;;;;;;;;;;;;-140.72;100.00;52569.44;5023312;28;19918;-67
2022/07/02 01:28:06;;;;;;;;;;;;;;;-140.72;100.00;52541.03;5030809;28;19921;-70
2022/07/02 01:30:32;;;;;;;;;;;;;;;-140.72;100.00;52571.47;5029748;28;19917;-69
2022/07/02 01:32:57;;;;;;;;;;;;;;;-140.72;100.00;52571.47;5031625;28;19993;-68
2022/07/02 01:35:22;;;;;;;;;;;;;;;-140.72;100.00;52597.84;5034640;28;19921;-68
2022/07/02 01:37:52;;;;;;;;;;;;;;;-140.72;100.00;52605.94;5032514;28;19944;-68
2022/07/02 01:40:19;;;;;;;;;;;;;;;-140.72;100.00;52541.03;5031580;28;19929;-69
2022/07/02 01:42:44;;;;;;;;;;;;;;;-140.72;100.00;52585.66;5012120;28;19928;-67
2022/07/02 01:45:10;;;;;;;;;;;;;;;-140.72;100.00;52565.38;5030409;28;20295;-68
2022/07/02 01:47:35;;;;;;;;;;;;;;;-140.72;100.00;52563.34;5031962;28;19917;-68
2022/07/02 01:50:00;;;;;;;;;;;;;;;-140.72;100.00;52595.81;5018258;28;19928;-68
2022/07/02 01:52:26;;;;;;;;;;;;;;;-140.72;100.00;52547.09;5020562;28;20315;-69
2022/07/02 01:54:52;;;;;;;;;;;;;;;-140.72;100.00;52589.72;5031661;28;19952;-68
2022/07/02 01:57:17;;;;;;;;;;;;;;;-140.72;100.00;52573.50;5028244;28;19971;-69
2022/07/02 01:59:43;;;;;;;;;;;;;;;-140.72;100.00;52561.31;5044963;28;19921;-69
2022/07/02 02:02:08;;;;;;;;;;;;;;;-140.72;100.00;52567.41;5031912;28;19917;-69
2022/07/02 02:04:33;;;;;;;;;;;;;;;-140.72;100.00;52616.09;5025903;28;19917;-68
2022/07/02 02:06:59;;;;;;;;;;;;;;;-140.72;100.00;52573.50;5024833;28;19973;-68
2022/07/02 02:09:24;;;;;;;;;;;;;;;-140.72;100.00;52573.50;5030327;28;19918;-69
2022/07/02 02:11:49;;;;;;;;;;;;;;;-140.72;100.00;52593.78;5034998;28;19917;-70
2022/07/02 02:14:14;;;;;;;;;;;;;;;-140.72;100.00;52569.44;5035164;28;19925;-69
2022/07/02 02:16:40;;;;;;;;;;;;;;;-140.72;100.00;52581.59;5048813;28;19928;-70
2022/07/02 02:19:05;;;;;;;;;;;;;;;-140.72;100.00;52614.06;5035741;28;19918;-67
2022/07/02 02:21:31;;;;;;;;;;;;;;;-140.72;100.00;52573.50;5033981;28;19918;-69
2022/07/02 02:23:57;;;;;;;;;;;;;;;-140.72;100.00;52561.31;5015809;28;19917;-69
2022/07/02 02:26:23;;;;;;;;;;;;;;;-140.72;100.00;52561.31;5028889;28;19927;-71
2022/07/02 02:28:48;;;;;;;;;;;;;;;-140.72;100.00;52607.97;5031548;28;19949;-70
2022/07/02 02:31:14;;;;;;;;;;;;;;;-140.72;100.00;52557.25;5032691;28;19918;-70
2022/07/02 02:33:39;;;;;;;;;;;;;;;-140.72;100.00;52555.22;5040215;23;19933;-68
2022/07/02 02:36:05;;;;;;;;;;;;;;;-140.72;100.00;52577.53;5015679;28;19910;-69
2022/07/02 02:38:30;;;;;;;;;;;;;;;-140.72;100.00;52541.03;5026097;28;20041;-68
2022/07/02 02:40:56;;;;;;;;;;;;;;;-140.72;100.00;52597.84;5019314;28;19929;-69
2022/07/02 02:43:21;;;;;;;;;;;;;;;-140.72;100.00;52565.38;5044269;28;19906;-69
2022/07/02 02:45:47;;;;;;;;;;;;;;;-140.72;100.00;52589.72;5018168;28;19929;-69
2022/07/02 02:48:13;;;;;;;;;;;;;;;-140.72;100.00;52559.28;5019584;28;19918;-69
2022/07/02 02:50:38;;;;;;;;;;;;;;;-140.72;100.00;52587.69;5026365;28;19928;-68
2022/07/02 02:53:03;;;;;;;;;;;;;;;-140.72;100.00;52616.09;5024197;28;19910;-68
2022/07/02 02:55:28;;;;;;;;;;;;;;;-140.72;100.00;52571.47;5020060;28;19944;-67
2022/07/02 02:57:54;;;;;;;;;;;;;;;-140.72;100.00;52610.00;5019215;28;19912;-68
2022/07/02 03:00:19;;;;;;;;;;;;;;;-140.72;100.00;52587.69;5018440;28;19918;-68
2022/07/02 03:02:44;;;;;;;;;;;;;;;-140.72;100.00;52610.00;5019690;28;19973;-68
2022/07/02 03:05:09;;;;;;;;;;;;;;;-140.72;100.00;52595.81;5018019;28;19925;-68
2022/07/02 03:07:35;;;;;;;;;;;;;;;-140.72;100.00;52581.59;5014830;28;20123;-67
2022/07/02 03:10:00;;;;;;;;;;;;;;;-140.72;100.00;52593.78;5013108;28;19981;-68
2022/07/02 03:12:25;;;;;;;;;;;;;;;-140.72;100.00;52583.63;5018488;28;19933;-69
2022/07/02 03:14:51;;;;;;;;;;;;;;;-140.72;100.00;52595.81;5034651;28;19965;-68
2022/07/02 03:17:16;;;;;;;;;;;;;;;-140.72;100.00;52583.63;5019246;28;19972;-68
2022/07/02 03:19:41;;;;;;;;;;;;;;;-140.72;100.00;52575.50;5019570;28;19965;-67
2022/07/02 03:22:06;;;;;;;;;;;;;;;-140.72;100.00;52603.94;5018311;28;19917;-68
2022/07/02 03:24:31;;;;;;;;;;;;;;;-140.72;100.00;52567.41;5035023;28;19922;-68
2022/07/02 03:26:57;;;;;;;;;;;;;;;-140.72;100.00;52630.31;5018351;28;19922;-69
2022/07/02 03:29:22;;;;;;;;;;;;;;;-140.72;100.00;52577.53;5019114;28;19906;-68
2022/07/02 03:31:47;;;;;;;;;;;;;;;-140.72;100.00;52585.66;5018426;28;19922;-68
2022/07/02 03:34:12;;;;;;;;;;;;;;;-140.72;100.00;52565.38;5003148;28;19926;-68
2022/07/02 03:36:38;;;;;;;;;;;;;;;-140.72;100.00;52601.91;4995957;28;19970;-69
2022/07/02 03:39:03;;;;;;;;;;;;;;;-140.72;100.00;52565.38;4998339;28;19926;-68
2022/07/02 03:41:28;;;;;;;;;;;;;;;-140.72;100.00;52565.38;4996363;28;19953;-68
2022/07/02 03:43:53;;;;;;;;;;;;;;;-140.72;100.00;52620.16;4999548;28;19910;-68
2022/07/02 03:46:19;;;;;;;;;;;;;;;-140.72;100.00;52549.13;4998331;28;19909;-68
2022/07/02 03:48:44;;;;;;;;;;;;;;;-140.72;100.00;52563.34;4998099;28;19918;-68
2022/07/02 03:51:09;;;;;;;;;;;;;;;-140.72;100.00;52561.31;4998134;28;19930;-69
2022/07/02 03:53:35;;;;;;;;;;;;;;;-140.72;100.00;52551.16;4999413;28;19946;-68
2022/07/02 03:56:01;;;;;;;;;;;;;;;-140.72;100.00;52583.63;4998228;28;19906;-69
2022/07/02 03:58:26;;;;;;;;;;;;;;;-140.72;100.00;52601.91;4998850;28;19925;-69
2022/07/02 04:00:51;;;;;;;;;;;;;;;-140.72;100.00;52571.47;4998747;28;19981;-69
2022/07/02 04:03:17;;;;;;;;;;;;;;;-140.72;100.00;52581.59;4998834;28;19906;-69
2022/07/02 04:05:42;;;;;;;;;;;;;;;-140.72;100.00;52587.69;4994426;28;19913;-69
2022/07/02 04:08:07;;;;;;;;;;;;;;;-140.72;100.00;52610.00;4979900;28;19913;-68
2022/07/02 04:10:32;;;;;;;;;;;;;;;-140.72;100.00;52593.78;5008269;28;19954;-70
2022/07/02 04:12:58;;;;;;;;;;;;;;;-140.72;100.00;52536.97;4992485;28;19930;-69
2022/07/02 04:15:23;;;;;;;;;;;;;;;-140.72;100.00;52575.50;4992429;28;19973;-70
2022/07/02 04:17:48;;;;;;;;;;;;;;;-140.72;100.00;52553.19;4988636;28;19902;-68
2022/07/02 04:20:13;;;;;;;;;;;;;;;-140.72;100.00;52547.09;4997752;28;19925;-68
2022/07/02 04:22:38;;;;;;;;;;;;;;;-140.72;100.00;52545.06;4998366;28;19990;-68
2022/07/02 04:25:04;;;;;;;;;;;;;;;-140.72;100.00;52549.13;4998086;28;19938;-68
2022/07/02 04:27:29;;;;;;;;;;;;;;;-140.72;100.00;52559.28;4994585;28;19926;-68
2022/07/02 04:29:54;;;;;;;;;;;;;;;-140.72;100.00;52569.44;4982190;28;19944;-68
2022/07/02 04:32:20;;;;;;;;;;;;;;;-140.72;100.00;52522.75;4984840;28;19902;-68
2022/07/02 04:34:45;;;;;;;;;;;;;;;-140.72;100.00;52573.50;4983624;28;19990;-68
2022/07/02 04:37:10;;;;;;;;;;;;;;;-140.72;100.00;52551.16;4978760;28;19922;-67
2022/07/02 04:39:35;;;;;;;;;;;;;;;-140.72;100.00;52539.00;4983071;28;19930;-69
2022/07/02 04:42:01;;;;;;;;;;;;;;;-140.72;100.00;52561.31;4993345;28;19902;-68
2022/07/02 04:44:26;;;;;;;;;;;;;;;-140.72;100.00;52553.19;4983302;28;19923;-68
2022/07/02 04:46:52;;;;;;;;;;;;;;;-140.72;100.00;52581.59;4984232;28;19909;-68
2022/07/02 04:49:17;;;;;;;;;;;;;;;-140.72;100.00;52520.72;4980938;28;19921;-68
2022/07/02 04:51:42;;;;;;;;;;;;;;;-140.72;100.00;52553.19;4994953;28;19929;-67
2022/07/02 04:54:07;;;;;;;;;;;;;;;-140.72;100.00;52528.84;4992320;28;19907;-67
2022/07/02 04:56:33;;;;;;;;;;;;;;;-140.72;100.00;52534.94;4988276;28;20391;-68
2022/07/02 04:58:58;;;;;;;;;;;;;;;-140.72;100.00;52545.06;4982801;28;19961;-68
2022/07/02 05:01:23;;;;;;;;;;;;;;;-140.72;100.00;52502.47;4986960;28;19925;-67
2022/07/02 05:03:51;;;;;;;;;;;;;;;-140.72;100.00;52561.31;4981879;28;19925;-68
2022/07/02 05:06:16;;;;;;;;;;;;;;;-140.72;100.00;52543.03;4989500;28;19982;-68
2022/07/02 05:08:42;;;;;;;;;;;;;;;-140.72;100.00;52516.66;4986798;28;19906;-68
2022/07/02 05:11:07;;;;;;;;;;;;;;;-140.72;100.00;52518.69;4988475;28;19918;-67
2022/07/02 05:13:32;;;;;;;;;;;;;;;-140.72;100.00;52581.59;4988684;28;19918;-67
2022/07/02 05:15:58;;;;;;;;;;;;;;;-140.72;100.00;52524.78;4990448;28;19925;-68
2022/07/02 05:18:24;;;;;;;;;;;;;;;-140.72;100.00;52543.03;4981138;28;19953;-67
2022/07/02 05:20:49;;;;;;;;;;;;;;;-140.72;100.00;52547.09;4990122;28;19918;-66
2022/07/02 05:23:14;;;;;;;;;;;;;;;-140.72;100.00;52532.91;4984047;28;19919;-67
2022/07/02 05:25:39;;;;;;;;;;;;;;;-140.72;100.00;52569.44;4983804;28;19925;-68
2022/07/02 05:28:05;;;;;;;;;;;;;;;-140.72;100.00;52526.81;4984053;28;19925;-67
2022/07/02 05:30:30;;;;;;;;;;;;;;;-140.72;100.00;52532.91;4991207;28;19961;-66
2022/07/02 05:32:55;;;;;;;;;;;;;;;-140.72;100.00;52536.97;4982568;28;19926;-68
2022/07/02 05:35:20;;;;;;;;;;;;;;;-140.72;100.00;52545.06;4982924;28;19918;-67
2022/07/02 05:37:45;;;;;;;;;;;;;;;-140.72;100.00;52559.28;4986143;28;19946;-67
2022/07/02 05:40:11;;;;;;;;;;;;;;;-140.72;100.00;52500.44;4986974;28;19970;-65
2022/07/02 05:42:36;;;;;;;;;;;;;;;-140.72;100.00;52528.84;4988606;28;19919;-68
2022/07/02 05:45:02;;;;;;;;;;;;;;;-140.72;100.00;52549.13;4980717;28;19970;-68
2022/07/02 05:47:27;;;;;;;;;;;;;;;-140.72;100.00;52478.13;4987223;28;19965;-69
2022/07/02 05:49:52;;;;;;;;;;;;;;;-140.72;100.00;52492.31;4985251;28;19942;-68
2022/07/02 05:52:18;;;;;;;;;;;;;;;-140.72;100.00;52500.44;4988448;28;19925;-69
2022/07/02 05:54:44;;;;;;;;;;;;;;;-140.72;100.00;52490.28;4979911;28;20291;-74
2022/07/02 05:57:09;;;;;;;;;;;;;;;-140.72;100.00;52524.78;4978366;28;19918;-74
2022/07/02 05:59:34;;;;;;;;;;;;;;;-140.72;100.00;52472.03;4971720;28;20379;-75
2022/07/02 06:02:00;;;;;;;;;;;;;;;-140.72;100.00;52490.28;4998172;28;19918;-74
2022/07/02 06:04:25;;;;;;;;;;;;;;;-140.72;100.00;52492.31;4971626;28;19969;-74
2022/07/02 06:09:34;;;;;;;;;;;;;;;-140.72;100.00;52486.22;4972842;28;19941;-75
2022/07/02 06:12:00;;;;;;;;;;;;;;;-140.72;100.00;52484.19;4993779;28;19919;-75
2022/07/02 06:14:25;;;;;;;;;;;;;;;-140.72;100.00;52480.16;4972462;28;19942;-74
2022/07/02 06:16:51;;;;;;;;;;;;;;;-140.72;100.00;52500.44;4971450;28;19953;-74
2022/07/02 06:19:16;;;;;;;;;;;;;;;-140.72;100.00;52461.88;4969873;28;20438;-74
2022/07/02 06:21:41;;;;;;;;;;;;;;;-140.72;100.00;52482.16;4983061;28;19925;-72
2022/07/02 06:24:08;;;;;;;;;;;;;;;-140.72;100.00;52467.97;4972856;28;19922;-74
2022/07/02 06:26:34;;;;;;;;;;;;;;;-140.72;100.00;52484.19;4973032;28;19919;-73
2022/07/02 06:28:59;;;;;;;;;;;;;;;-140.72;100.00;52506.53;4978196;28;19924;-75
2022/07/02 06:31:24;;;;;;;;;;;;;;;-140.72;100.00;52480.16;4972369;28;20383;-73
2022/07/02 06:33:49;;;;;;;;;;;;;;;-140.72;100.00;52476.09;4973143;28;20005;-76
2022/07/02 06:36:16;;;;;;;;;;;;;;;-140.72;100.00;52488.25;4974889;28;19923;-77
2022/07/02 06:38:42;;;;;;;;;;;;;;;-140.72;100.00;52421.28;4984579;28;19957;-73
2022/07/02 06:42:18;;;;;;;;;;;;;;;-140.72;100.00;52443.63;4980006;28;19929;-74
2022/07/02 06:44:02;;;;;;;;;;;;;;;-140.72;100.00;52459.84;4985550;28;19922;-74
2022/07/02 06:46:27;;;;;;;;;;;;;;;-140.72;100.00;52463.91;4979057;28;20268;-76
2022/07/02 06:48:52;;;;;;;;;;;;;;;-140.72;100.00;52467.97;4978228;28;19922;-71
2022/07/02 06:51:18;;;;;;;;;;;;;;;-140.72;100.00;52447.69;4979711;28;20052;-71
2022/07/02 06:53:43;;;;;;;;;;;;;;;-140.72;100.00;52431.44;4968114;28;19957;-71
2022/07/02 06:56:08;;;;;;;;;;;;;;;-140.72;100.00;52401.00;4987125;28;19922;-70
2022/07/02 06:58:33;;;;;;;;;;;;;;;-140.72;100.00;52457.81;4976825;28;19925;-70
2022/07/02 07:00:59;;;;;;;;;;;;;;;-140.72;100.00;52445.66;4975399;28;19925;-70
2022/07/02 07:03:24;;;;;;;;;;;;;;;-140.72;100.00;52417.25;4964619;28;21349;-71
2022/07/02 07:05:59;;;;;;;;;;;;;;;-140.72;100.00;52461.88;4971319;28;19918;-71
2022/07/02 07:08:25;;;;;;;;;;;;;;;-140.72;100.00;52439.56;4975028;28;19976;-69
2022/07/02 07:10:50;;;;;;;;;;;;;;;-140.72;100.00;52427.38;4969251;28;19922;-68
2022/07/02 07:13:15;;;;;;;;;;;;;;;-140.72;100.00;52405.06;4978796;28;19977;-69
2022/07/02 07:15:40;;;;;;;;;;;;;;;-140.72;100.00;52415.22;4978040;28;19918;-69
2022/07/02 07:18:06;;;;;;;;;;;;;;;-140.72;100.00;52431.44;4975487;28;19926;-70
2022/07/02 07:20:32;;;;;;;;;;;;;;;-140.72;100.00;52415.22;4979105;28;19919;-71
2022/07/02 07:22:57;;;;;;;;;;;;;;;-140.72;100.00;52411.16;4993275;28;20002;-69
2022/07/02 07:25:23;;;;;;;;;;;;;;;-140.72;100.00;52415.22;4996689;28;19914;-68
2022/07/02 07:27:48;;;;;;;;;;;;;;;-140.72;100.00;52445.66;4994114;28;19922;-70
2022/07/02 07:30:13;;;;;;;;;;;;;;;-140.72;100.00;52401.00;4992548;28;19930;-69
2022/07/02 07:32:39;;;;;;;;;;;;;;;-140.72;100.00;52405.06;4991371;28;20311;-68
2022/07/02 07:35:04;;;;;;;;;;;;;;;-140.72;100.00;52358.41;4999172;28;19917;-67
2022/07/02 07:37:30;;;;;;;;;;;;;;;-140.72;100.00;52386.81;4986638;28;20406;-67
2022/07/02 07:39:55;;;;;;;;;;;;;;;-140.72;100.00;52423.31;4986452;28;19933;-68
2022/07/02 07:42:22;;;;;;;;;;;;;;;-140.72;100.00;52403.03;4997605;28;19922;-67
2022/07/02 07:44:47;;;;;;;;;;;;;;;-140.72;100.00;52384.78;4999047;28;19948;-66
2022/07/02 07:47:13;;;;;;;;;;;;;;;-140.72;100.00;52370.56;4996728;28;19906;-66
2022/07/02 07:49:38;;;;;;;;;;;;;;;-140.72;100.00;52362.44;4998060;28;19929;-67
2022/07/02 07:52:04;;;;;;;;;;;;;;;-140.72;100.00;52366.50;4999270;28;19950;-67
2022/07/02 07:54:29;;;;;;;;;;;;;;;-140.72;100.00;52382.75;4998337;28;19917;-67
2022/07/02 07:56:54;;;;;;;;;;;;;;;-140.72;100.00;52378.69;4998349;28;19918;-67
2022/07/02 07:59:20;;;;;;;;;;;;;;;-140.72;100.00;52368.53;4984607;28;20285;-66
2022/07/02 08:01:45;;;;;;;;;;;;;;;-140.72;100.00;52362.44;4989701;28;19918;-66
2022/07/02 08:04:10;;;;;;;;;;;;;;;-140.72;100.00;52366.50;4992524;28;19965;-67
2022/07/02 08:06:35;;;;;;;;;;;;;;;-140.72;100.00;52372.59;4990202;28;19981;-67
2022/07/02 08:09:01;;;;;;;;;;;;;;;-140.72;100.00;52354.34;4991737;28;19919;-68
2022/07/02 08:11:26;;;;;;;;;;;;;;;-140.72;100.00;52344.19;4998485;28;20004;-67
2022/07/02 08:13:52;;;;;;;;;;;;;;;-140.72;100.00;52336.06;4997149;28;19918;-69
2022/07/02 08:16:17;;;;;;;;;;;;;;;-140.72;100.00;52356.38;4980529;28;19973;-67
2022/07/02 08:18:42;;;;;;;;;;;;;;;-140.72;100.00;52348.25;4995020;28;19985;-69
2022/07/02 08:21:07;;;;;;;;;;;;;;;-140.72;100.00;52313.75;4998539;28;19933;-66
2022/07/02 08:23:33;;;;;;;;;;;;;;;-140.72;100.00;52311.72;4998313;28;20375;-68
2022/07/02 08:25:58;;;;;;;;;;;;;;;-140.72;100.00;52281.28;4988889;28;19938;-67
2022/07/02 08:28:23;;;;;;;;;;;;;;;-140.72;100.00;52309.69;4991260;28;19918;-67
2022/07/02 08:30:49;;;;;;;;;;;;;;;-140.72;100.00;52295.50;4978806;28;19918;-68
2022/07/02 08:33:15;;;;;;;;;;;;;;;-140.72;100.00;52269.13;4994395;28;19929;-67
2022/07/02 08:35:41;;;;;;;;;;;;;;;-140.72;100.00;52301.59;4994850;28;19933;-67
2022/07/02 08:38:06;;;;;;;;;;;;;;;-140.72;100.00;52244.78;4991844;28;19919;-67
2022/07/02 08:40:31;;;;;;;;;;;;;;;-140.72;100.00;52244.78;4979268;28;19929;-67
2022/07/02 08:42:58;;;;;;;;;;;;;;;-140.72;100.00;52273.19;4982656;28;19918;-68
2022/07/02 08:45:24;;;;;;;;;;;;;;;-140.72;100.00;52261.00;4997344;28;19924;-68
2022/07/02 08:47:54;;;;;;;;;;;;;;;-140.72;100.00;52220.41;4991686;28;19941;-68
2022/07/02 08:50:20;;;;;;;;;;;;;;;-140.72;100.00;52252.88;4996703;28;19902;-67
2022/07/02 08:52:47;;;;;;;;;;;;;;;-140.72;100.00;52240.72;4997274;28;19949;-69
2022/07/02 08:55:14;;;;;;;;;;;;;;;-140.72;100.00;52271.16;5011689;28;19926;-69
2022/07/02 08:57:39;;;;;;;;;;;;;;;-140.72;100.00;52240.72;4996597;28;19933;-68
2022/07/02 09:00:05;;;;;;;;;;;;;;;-140.72;100.00;52224.47;4996171;28;19953;-66
2022/07/02 09:02:31;;;;;;;;;;;;;;;-140.72;100.00;52200.13;4995509;28;19941;-67
2022/07/02 09:04:57;;;;;;;;;;;;;;;-140.72;100.00;52173.75;4995849;28;19918;-68
2022/07/02 09:07:23;;;;;;;;;;;;;;;-140.72;100.00;52165.63;4996165;28;19957;-66
2022/07/02 09:09:49;;;;;;;;;;;;;;;-140.72;100.00;52183.91;4996003;28;19918;-68
2022/07/02 09:12:15;;;;;;;;;;;;;;;-140.72;100.00;52139.25;4995241;28;19974;-67
2022/07/02 09:14:41;;;;;;;;;;;;;;;-140.72;100.00;52159.56;4996480;28;19947;-67
2022/07/02 09:17:07;;;;;;;;;;;;;;;-140.72;100.00;52110.84;4992698;28;19929;-67
2022/07/02 09:19:33;;;;;;;;;;;;;;;-140.72;100.00;52137.22;4986689;28;19954;-67
2022/07/02 09:21:58;;;;;;;;;;;;;;;-140.72;100.00;52106.78;4999722;28;19918;-67
2022/07/02 09:24:31;;;;;;;;;;;;;;;-140.72;100.00;52108.81;4999847;28;19918;-67
2022/07/02 09:27:00;;;;;;;;;;;;;;;-140.72;100.00;52094.63;5000687;28;19918;-68
2022/07/02 09:29:25;;;;;;;;;;;;;;;-140.72;100.00;52074.34;4999619;28;19922;-67
2022/07/02 09:31:51;;;;;;;;;;;;;;;-140.72;100.00;52047.97;4998616;28;19910;-69
2022/07/02 09:34:26;;;;;;;;;;;;;;;-140.72;100.00;52121.00;4999170;28;19949;-70
2022/07/02 09:36:51;;;;;;;;;;;;;;;-140.72;100.00;52066.22;5014967;28;19914;-70
2022/07/02 09:39:26;;;;;;;;;;;;;;;-140.72;100.00;52125.06;4998843;28;19933;-71
2022/07/02 09:41:51;;;;;;;;;;;;;;;-140.72;100.00;52070.28;4999021;28;19933;-69
2022/07/02 09:44:16;;;;;;;;;;;;;;;-140.72;100.00;52062.16;4999161;28;19926;-71
2022/07/02 09:46:43;;;;;;;;;;;;;;;-140.72;100.00;52017.53;4994807;28;19946;-70
2022/07/02 09:49:08;;;;;;;;;;;;;;;-140.72;100.00;52033.75;4995431;28;19961;-69
2022/07/02 09:51:45;;;;;;;;;;;;;;;-140.72;100.00;51976.94;4997688;28;19933;-70
2022/07/02 09:54:17;;;;;;;;;;;;;;;-140.72;98.57;52015.50;4998756;28;19918;-70
2022/07/02 09:56:49;;;;;;;;;;;;;;;-140.72;96.55;52001.28;4988367;28;19930;-70
2022/07/02 09:59:15;;;;;;;;;;;;;;;-140.72;95.11;51985.06;4987206;28;19922;-70
2022/07/02 10:01:42;;;;;;;;;;;;;;;-140.72;99.73;52035.78;4991951;28;19922;-69
2022/07/02 10:04:08;;;;;;;;;;;;;;;-140.72;99.12;51970.84;4986696;28;19930;-70
2022/07/02 10:06:33;;;;;;;;;;;;;;;-140.72;97.75;51985.06;5006913;28;19918;-70
2022/07/02 10:08:59;;;;;;;;;;;;;;;-140.72;98.21;51983.03;4989691;28;19993;-70
2022/07/02 10:11:24;;;;;;;;;;;;;;;-140.72;97.30;51960.72;4982268;28;19919;-70
2022/07/02 10:13:50;;;;;;;;;;;;;;;-140.72;88.83;51932.31;4986227;28;19922;-71
2022/07/02 10:16:17;;;;;;;;;;;;;;;-140.72;90.26;51991.16;5000514;28;20017;-70
2022/07/02 10:18:43;;;;;;;;;;;;;;;-140.72;91.31;51960.72;4987172;28;19918;-70
2022/07/02 10:21:11;;;;;;;;;;;;;;;-140.72;92.49;51940.41;4980635;28;19989;-70
2022/07/02 10:23:37;;;;;;;;;;;;;;;-140.72;81.93;51903.91;4987661;28;19926;-70
2022/07/02 10:26:02;;;;;;;;;;;;;;;-140.72;80.49;51912.03;4990015;28;20303;-72
2022/07/02 10:28:28;;;;;;;;;;;;;;;-140.72;78.32;51914.03;4987701;28;19925;-70
2022/07/02 10:30:56;;;;;;;;;;;;;;;-140.72;83.35;51944.47;5001637;28;19922;-72
2022/07/02 10:33:31;;;;;;;;;;;;;;;-140.72;76.60;51895.78;4972343;28;19922;-72
2022/07/02 10:35:58;;;;;;;;;;;;;;;-140.72;77.29;51851.16;4985692;28;19928;-72
2022/07/02 10:38:34;;;;;;;;;;;;;;;-140.72;77.81;51924.19;4972977;28;20340;-72
2022/07/02 10:40:59;;;;;;;;;;;;;;;-140.72;75.50;51836.94;4983810;28;19919;-69
2022/07/02 10:43:29;;;;;;;;;;;;;;;-140.72;83.19;51924.19;4971544;28;19957;-69
2022/07/02 10:46:05;;;;;;;;;;;;;;;-140.72;83.16;51997.22;4975828;28;19918;-72
2022/07/02 10:48:32;;;;;;;;;;;;;;;-140.72;88.90;52161.56;4990798;28;19918;-70
2022/07/02 10:50:58;;;;;;;;;;;;;;;-140.72;96.42;51956.66;4990575;28;19985;-71
2022/07/02 10:53:24;;;;;;;;;;;;;;;-140.72;90.77;51956.66;4984629;28;19929;-70
2022/07/02 10:55:58;;;;;;;;;;;;;;;-140.72;87.75;51983.03;4985229;28;19977;-71
2022/07/02 10:58:28;;;;;;;;;;;;;;;-140.72;95.54;52070.28;4997213;28;19922;-72
2022/07/02 11:00:54;;;;;;;;;;;;;;;-140.72;100.00;52090.56;4985057;28;19977;-70
2022/07/02 11:03:24;;;;;;;;;;;;;;;-140.72;100.00;52149.41;4988786;28;20406;-68
2022/07/02 11:06:10;;;;;;;;;;;;;;;-140.72;100.00;52009.41;4971501;28;19919;-68
2022/07/02 11:08:41;;;;;;;;;;;;;;;-140.72;100.00;52084.47;4966643;28;19919;-71
2022/07/02 11:11:08;;;;;;;;;;;;;;;-140.72;100.00;52064.19;5003016;28;20025;-71
2022/07/02 11:13:41;;;;;;;;;;;;;;;-140.72;100.00;52056.06;4978554;28;19922;-70
2022/07/02 11:16:20;;;;;;;;;;;;;;;-140.72;100.00;52005.34;4993017;28;19918;-68
2022/07/02 11:18:46;;;;;;;;;;;;;;;-140.72;100.00;51981.00;5003307;28;19922;-68
2022/07/02 11:21:12;;;;;;;;;;;;;;;-140.72;100.00;52003.31;4998962;28;20003;-70
2022/07/02 11:23:38;;;;;;;;;;;;;;;-140.72;100.00;52094.63;4979428;28;19926;-70
2022/07/02 11:26:03;;;;;;;;;;;;;;;-140.72;100.00;52078.38;4984229;28;19922;-72
2022/07/02 11:28:28;;;;;;;;;;;;;;;-140.72;100.00;52123.03;4986167;28;19922;-70
2022/07/02 11:30:56;;;;;;;;;;;;;;;-140.72;100.00;52143.31;4990003;28;19985;-70
2022/07/02 11:33:22;;;;;;;;;;;;;;;-140.72;100.00;52147.38;4980491;28;19922;-68
2022/07/02 11:35:51;;;;;;;;;;;;;;;-140.72;100.00;52183.91;4991588;28;19922;-68
2022/07/02 11:38:17;;;;;;;;;;;;;;;-140.72;100.00;52192.00;5005928;28;20403;-68
2022/07/02 11:40:42;;;;;;;;;;;;;;;-140.72;100.00;52204.19;4992613;28;19922;-70
2022/07/02 11:43:17;;;;;;;;;;;;;;;-140.72;100.00;52192.00;4992941;28;19925;-69
2022/07/02 11:45:43;;;;;;;;;;;;;;;-140.72;100.00;52169.69;4992630;28;19976;-70
2022/07/02 11:48:17;;;;;;;;;;;;;;;-140.72;100.00;52064.19;4992876;28;20285;-69
2022/07/02 11:50:42;;;;;;;;;;;;;;;-140.72;100.00;52033.75;4991896;28;19920;-69
2022/07/02 11:53:08;;;;;;;;;;;;;;;-140.72;100.00;52139.25;4993024;28;19926;-68
2022/07/02 11:55:33;;;;;;;;;;;;;;;-140.72;100.00;52029.69;4990722;28;19918;-72
2022/07/02 11:57:58;;;;;;;;;;;;;;;-140.72;100.00;51978.97;4982148;28;19927;-73
2022/07/02 12:00:31;;;;;;;;;;;;;;;-140.72;100.00;52074.34;4977827;28;19919;-73
2022/07/02 12:02:56;;;;;;;;;;;;;;;-140.72;100.00;52151.44;4971603;28;20025;-78
2022/07/02 12:05:21;;;;;;;;;;;;;;;-140.72;100.00;52009.41;4968464;28;19987;-76
2022/07/02 12:07:47;;;;;;;;;;;;;;;-140.72;100.00;52076.34;4974843;28;19926;-74
2022/07/02 12:10:13;;;;;;;;;;;;;;;-140.72;100.00;52110.84;4976036;28;19918;-76
2022/07/02 12:12:38;;;;;;;;;;;;;;;-140.72;100.00;52133.16;4976839;28;19918;-76
2022/07/02 12:15:04;;;;;;;;;;;;;;;-140.72;100.00;52133.16;4979403;28;19918;-74
2022/07/02 12:17:30;;;;;;;;;;;;;;;-140.72;100.00;51976.94;4968211;28;19926;-74
2022/07/02 12:19:56;;;;;;;;;;;;;;;-140.72;100.00;51901.88;4981406;28;19944;-74